createdAt,value
2022-11-23T00:00:38.326Z,98825.66
2022-11-23T00:03:04.816Z,99004.28
2022-11-23T00:05:31.873Z,98998.88
2022-11-23T00:07:58.353Z,99005.22
2022-11-23T00:10:24.744Z,99003.81
2022-11-23T00:12:51.120Z,98990.38
2022-11-23T00:15:17.613Z,98978.22
2022-11-23T00:17:47.583Z,98993.63
2022-11-23T00:20:14.051Z,98987.13
2022-11-23T00:22:40.454Z,98851.44
2022-11-23T00:25:07.289Z,98884.06
2022-11-23T00:27:33.875Z,99004.59
2022-11-23T00:30:00.610Z,98883.56
2022-11-23T00:32:29.634Z,98873.09
2022-11-23T00:34:56.255Z,98905.41
2022-11-23T00:37:22.867Z,98943.78
2022-11-23T00:39:49.398Z,99013.19
2022-11-23T00:42:15.758Z,98979.53
2022-11-23T00:44:42.142Z,99043.44
2022-11-23T00:47:08.603Z,99023.50
2022-11-23T00:49:35.005Z,98994.69
2022-11-23T00:52:01.614Z,99023.00
2022-11-23T00:54:28.030Z,98912.91
2022-11-23T00:56:54.549Z,98899.22
2022-11-23T00:59:21.013Z,98908.88
2022-11-23T01:01:48.945Z,99033.03
2022-11-23T01:04:15.525Z,98997.69
2022-11-23T01:06:42.118Z,98907.59
2022-11-23T01:09:14.441Z,98970.34
2022-11-23T01:11:41.299Z,99043.66
2022-11-23T01:14:07.771Z,98841.63
2022-11-23T01:16:37.975Z,99050.59
2022-11-23T01:19:07.642Z,99040.44
2022-11-23T01:21:35.900Z,99058.47
2022-11-23T01:24:14.820Z,99030.72
2022-11-23T01:26:46.871Z,98984.34
2022-11-23T01:29:13.526Z,99028.81
2022-11-23T01:31:46.111Z,98917.69
2022-11-23T01:34:14.465Z,99060.13
2022-11-23T01:36:41.196Z,99022.59
2022-11-23T01:39:09.885Z,99041.66
2022-11-23T01:41:40.645Z,99065.81
2022-11-23T01:44:25.488Z,98979.25
2022-11-23T01:46:52.007Z,99023.44
2022-11-23T01:49:18.872Z,98874.34
2022-11-23T01:51:49.432Z,98998.88
2022-11-23T01:54:21.581Z,99074.00
2022-11-23T01:56:52.941Z,99057.53
2022-11-23T01:59:20.152Z,98997.09
2022-11-23T02:01:46.763Z,98897.22
2022-11-23T02:04:19.704Z,99083.19
2022-11-23T02:06:47.842Z,99010.88
2022-11-23T02:09:16.353Z,99072.59
2022-11-23T02:11:43.016Z,99073.22
2022-11-23T02:14:09.594Z,99033.63
2022-11-23T02:16:37.984Z,99075.38
2022-11-23T02:19:12.580Z,99086.47
2022-11-23T02:21:41.158Z,98990.00
2022-11-23T02:24:20.747Z,99077.97
2022-11-23T02:26:47.514Z,99079.38
2022-11-23T02:29:27.014Z,99099.47
2022-11-23T02:31:54.167Z,98940.28
2022-11-23T02:34:20.916Z,98985.59
2022-11-23T02:36:48.469Z,99094.22
2022-11-23T02:39:30.771Z,99098.44
2022-11-23T02:41:58.252Z,98941.69
2022-11-23T02:44:36.851Z,99093.50
2022-11-23T02:47:04.451Z,99079.25
2022-11-23T02:49:31.276Z,99051.81
2022-11-23T02:51:57.956Z,98992.94
2022-11-23T02:54:24.354Z,98995.63
2022-11-23T02:56:50.936Z,99076.25
2022-11-23T02:59:19.637Z,99075.38
2022-11-23T03:01:46.734Z,98931.53
2022-11-23T03:04:13.450Z,98931.81
2022-11-23T03:06:39.830Z,99013.28
2022-11-23T03:09:06.214Z,98988.03
2022-11-23T03:11:33.481Z,99081.78
2022-11-23T03:13:59.949Z,98979.47
2022-11-23T03:16:26.506Z,99053.78
2022-11-23T03:18:53.060Z,99058.88
2022-11-23T03:21:19.513Z,98930.88
2022-11-23T03:23:46.006Z,99075.44
2022-11-23T03:26:13.370Z,99030.25
2022-11-23T03:28:40.267Z,99096.34
2022-11-23T03:31:06.633Z,99012.88
2022-11-23T03:33:33.370Z,99097.91
2022-11-23T03:35:59.743Z,99103.13
2022-11-23T03:38:26.390Z,99096.50
2022-11-23T03:40:52.825Z,99094.66
2022-11-23T03:43:19.691Z,99000.03
2022-11-23T03:45:46.038Z,99096.78
2022-11-23T03:48:12.549Z,99075.72
2022-11-23T03:50:38.943Z,99038.72
2022-11-23T03:53:06.191Z,99032.50
2022-11-23T03:55:33.327Z,98990.78
2022-11-23T03:57:59.973Z,99087.03
2022-11-23T04:00:29.545Z,99107.75
2022-11-23T04:02:56.148Z,99090.28
2022-11-23T04:05:22.954Z,98943.13
2022-11-23T04:07:50.478Z,99055.09
2022-11-23T04:10:18.567Z,99099.97
2022-11-23T04:12:45.080Z,99118.25
2022-11-23T04:15:12.205Z,99008.47
2022-11-23T04:17:38.756Z,99093.97
2022-11-23T04:20:05.914Z,99104.84
2022-11-23T04:22:32.408Z,99102.38
2022-11-23T04:24:58.859Z,99092.69
2022-11-23T04:27:25.316Z,99096.09
2022-11-23T04:29:51.726Z,98995.16
2022-11-23T04:32:18.145Z,99080.56
2022-11-23T04:34:44.537Z,99028.91
2022-11-23T04:37:13.522Z,98970.66
2022-11-23T04:39:40.179Z,99053.13
2022-11-23T04:42:06.858Z,99039.28
2022-11-23T04:44:33.229Z,99084.91
2022-11-23T04:46:59.719Z,99098.34
2022-11-23T04:49:26.113Z,98927.97
2022-11-23T04:51:52.556Z,99038.94
2022-11-23T04:54:19.089Z,99083.94
2022-11-23T04:56:45.535Z,99063.44
2022-11-23T04:59:12.143Z,99135.59
2022-11-23T05:01:38.612Z,99088.91
2022-11-23T05:04:05.280Z,99043.81
2022-11-23T05:06:31.708Z,99022.06
2022-11-23T05:08:59.290Z,99044.50
2022-11-23T05:11:28.084Z,98957.66
2022-11-23T05:13:54.453Z,98954.41
2022-11-23T05:16:20.846Z,99006.47
2022-11-23T05:18:47.396Z,98996.16
2022-11-23T05:21:13.752Z,99025.53
2022-11-23T05:23:40.531Z,98905.50
2022-11-23T05:26:07.106Z,99059.91
2022-11-23T05:28:41.410Z,99058.78
2022-11-23T05:31:08.487Z,99095.66
2022-11-23T05:33:35.326Z,99101.66
2022-11-23T05:36:01.913Z,98919.84
2022-11-23T05:38:28.536Z,99102.00
2022-11-23T05:40:54.867Z,99071.06
2022-11-23T05:43:21.236Z,99053.13
2022-11-23T05:45:47.610Z,99105.84
2022-11-23T05:48:14.047Z,99089.31
2022-11-23T05:50:40.461Z,99103.59
2022-11-23T05:53:06.876Z,99090.41
2022-11-23T05:55:33.189Z,99045.84
2022-11-23T05:57:59.565Z,99103.22
2022-11-23T06:00:25.924Z,99116.69
2022-11-23T06:02:52.270Z,99106.59
2022-11-23T06:05:18.733Z,99113.34
2022-11-23T06:07:45.085Z,99016.28
2022-11-23T06:10:12.070Z,99120.81
2022-11-23T06:12:38.544Z,99109.56
2022-11-23T06:15:05.496Z,99076.88
2022-11-23T06:17:31.889Z,99089.19
2022-11-23T06:19:58.228Z,99095.50
2022-11-23T06:22:24.581Z,99073.63
2022-11-23T06:24:50.930Z,99112.63
2022-11-23T06:27:18.320Z,99088.44
2022-11-23T06:29:45.185Z,99107.81
2022-11-23T06:32:11.541Z,99097.22
2022-11-23T06:34:37.920Z,99094.28
2022-11-23T06:37:04.271Z,99117.56
2022-11-23T06:39:30.972Z,98945.50
2022-11-23T06:42:10.991Z,99088.44
2022-11-23T06:44:44.010Z,99076.16
2022-11-23T06:47:14.012Z,99053.28
2022-11-23T06:49:43.188Z,99112.63
2022-11-23T06:52:09.557Z,99097.97
2022-11-23T06:54:35.905Z,99095.50
2022-11-23T06:57:02.308Z,99036.75
2022-11-23T06:59:28.630Z,99105.69
2022-11-23T07:01:54.930Z,99092.13
2022-11-23T07:04:21.622Z,99143.44
2022-11-23T07:06:48.016Z,99105.97
2022-11-23T07:09:14.399Z,99118.28
2022-11-23T07:11:40.835Z,99021.22
2022-11-23T07:14:07.224Z,99134.97
2022-11-23T07:16:33.747Z,99095.47
2022-11-23T07:19:00.218Z,99089.19
2022-11-23T07:21:26.589Z,99154.63
2022-11-23T07:23:53.319Z,99104.13
2022-11-23T07:26:19.729Z,99138.13
2022-11-23T07:28:46.069Z,99129.44
2022-11-23T07:31:15.792Z,99071.19
2022-11-23T07:33:46.386Z,99173.13
2022-11-23T07:36:13.693Z,99178.63
2022-11-23T07:38:40.527Z,99156.69
2022-11-23T07:41:07.170Z,99140.16
2022-11-23T07:43:33.626Z,99177.59
2022-11-23T07:45:59.949Z,99140.66
2022-11-23T07:48:27.543Z,99094.69
2022-11-23T07:50:56.085Z,99143.28
2022-11-23T07:53:23.626Z,99138.19
2022-11-23T07:55:50.046Z,99175.78
2022-11-23T07:58:16.355Z,99138.88
2022-11-23T08:00:42.752Z,99171.16
2022-11-23T08:03:29.907Z,99175.66
2022-11-23T08:05:56.678Z,99187.88
2022-11-23T08:08:23.067Z,99207.31
2022-11-23T08:10:53.468Z,99204.69
2022-11-23T08:13:21.203Z,99206.47
2022-11-23T08:15:53.461Z,99189.38
2022-11-23T08:18:21.181Z,99190.38
2022-11-23T08:20:47.550Z,99163.63
2022-11-23T08:23:13.869Z,99172.13
2022-11-23T08:25:40.253Z,99137.00
2022-11-23T08:28:06.936Z,99155.69
2022-11-23T08:30:34.301Z,99209.00
2022-11-23T08:33:08.158Z,99216.28
2022-11-23T08:35:38.889Z,99185.56
2022-11-23T08:38:07.516Z,99198.03
2022-11-23T08:40:34.345Z,99159.03
2022-11-23T08:43:00.845Z,99230.16
2022-11-23T08:45:27.416Z,99192.34
2022-11-23T08:47:54.138Z,99221.78
2022-11-23T08:50:20.709Z,99209.03
2022-11-23T08:52:47.550Z,99150.28
2022-11-23T08:55:14.092Z,99183.47
2022-11-23T08:57:40.405Z,99108.66
2022-11-23T09:00:07.508Z,99175.47
2022-11-23T09:02:33.870Z,99233.38
2022-11-23T09:05:00.672Z,99198.03
2022-11-23T09:07:27.101Z,99178.94
2022-11-23T09:09:53.515Z,99195.13
2022-11-23T09:12:19.868Z,99199.31
2022-11-23T09:14:46.332Z,99187.16
2022-11-23T09:17:12.735Z,99184.44
2022-11-23T09:19:39.118Z,99203.81
2022-11-23T09:22:05.466Z,99192.50
2022-11-23T09:24:32.224Z,99211.63
2022-11-23T09:26:59.002Z,99161.03
2022-11-23T09:29:25.674Z,99202.22
2022-11-23T09:31:52.811Z,99202.44
2022-11-23T09:34:19.165Z,99197.47
2022-11-23T09:36:46.316Z,99175.38
2022-11-23T09:39:12.886Z,99238.97
2022-11-23T09:42:07.196Z,99235.22
2022-11-23T09:45:09.846Z,99243.56
2022-11-23T09:47:54.871Z,99246.13
2022-11-23T09:50:39.682Z,99212.75
2022-11-23T09:53:13.435Z,99206.63
2022-11-23T09:55:46.720Z,99197.19
2022-11-23T09:58:17.122Z,99225.69
2022-11-23T10:00:48.746Z,99205.88
2022-11-23T10:03:17.136Z,99218.06
2022-11-23T10:06:05.938Z,99182.44
2022-11-23T10:08:52.214Z,99161.25
2022-11-23T10:11:21.255Z,99192.75
2022-11-23T10:14:00.459Z,99182.13
2022-11-23T10:16:55.021Z,99142.19
2022-11-23T10:19:37.427Z,99156.41
2022-11-23T10:22:29.535Z,99128.91
2022-11-23T10:24:55.914Z,99119.63
2022-11-23T10:27:24.294Z,99128.59
2022-11-23T10:29:52.511Z,99135.88
2022-11-23T10:32:39.201Z,99123.66
2022-11-23T10:35:14.773Z,99107.06
2022-11-23T10:37:41.930Z,99153.44
2022-11-23T10:40:23.667Z,99128.00
2022-11-23T10:42:57.804Z,99103.28
2022-11-23T10:45:26.263Z,99108.97
2022-11-23T10:47:55.242Z,99116.41
2022-11-23T10:50:29.859Z,99140.81
2022-11-23T10:52:59.610Z,99122.13
2022-11-23T10:55:32.396Z,99116.22
2022-11-23T10:57:59.275Z,99061.69
2022-11-23T11:00:30.814Z,99118.91
2022-11-23T11:02:58.802Z,99120.94
2022-11-23T11:06:01.127Z,99117.41
2022-11-23T11:08:18.291Z,99093.25
2022-11-23T11:11:02.703Z,99121.88
2022-11-23T11:13:40.591Z,99110.16
2022-11-23T11:16:20.293Z,99088.75
2022-11-23T11:18:46.682Z,99076.53
2022-11-23T11:21:27.030Z,99114.88
2022-11-23T11:24:02.110Z,99113.69
2022-11-23T11:26:30.908Z,99097.50
2022-11-23T11:29:02.997Z,99094.44
2022-11-23T11:31:41.131Z,99113.13
2022-11-23T11:34:32.835Z,99104.28
2022-11-23T11:37:10.864Z,99096.88
2022-11-23T11:39:50.715Z,99112.47
2022-11-23T11:42:21.385Z,99090.41
2022-11-23T11:44:52.811Z,99117.50
2022-11-23T11:47:24.922Z,99105.88
2022-11-23T11:49:56.011Z,99108.81
2022-11-23T11:52:28.053Z,99079.97
2022-11-23T11:55:09.554Z,99101.47
2022-11-23T11:58:09.431Z,99108.00
2022-11-23T12:00:43.550Z,99104.28
2022-11-23T12:03:29.661Z,99099.13
2022-11-23T12:06:01.870Z,99104.84
2022-11-23T12:08:50.704Z,99096.16
2022-11-23T12:11:17.245Z,99054.22
2022-11-23T12:13:46.870Z,99070.28
2022-11-23T12:16:29.872Z,99050.75
2022-11-23T12:19:18.836Z,99067.53
2022-11-23T12:22:13.514Z,99055.06
2022-11-23T12:25:11.383Z,99052.50
2022-11-23T12:27:52.701Z,99044.97
2022-11-23T12:30:41.793Z,99041.75
2022-11-23T12:33:43.639Z,99033.38
2022-11-23T12:36:28.434Z,99031.41
2022-11-23T12:39:12.372Z,99037.28
2022-11-23T12:42:01.912Z,99035.22
2022-11-23T12:44:54.102Z,99029.00
2022-11-23T12:47:24.254Z,99033.13
2022-11-23T12:49:59.636Z,99027.72
2022-11-23T12:52:44.298Z,99002.56
2022-11-23T12:55:23.923Z,99022.28
2022-11-23T12:58:05.619Z,98996.78
2022-11-23T13:00:37.839Z,99021.34
2022-11-23T13:03:31.621Z,99019.72
2022-11-23T13:06:06.997Z,99026.31
2022-11-23T13:08:54.794Z,99016.69
2022-11-23T13:11:49.268Z,99022.16
2022-11-23T13:14:49.897Z,99021.06
2022-11-23T13:17:38.748Z,99006.00
2022-11-23T13:20:22.067Z,99000.75
2022-11-23T13:22:49.605Z,99026.47
2022-11-23T13:25:25.676Z,99029.25
2022-11-23T13:27:51.929Z,99018.03
2022-11-23T13:30:27.411Z,99010.97
2022-11-23T13:33:02.960Z,99015.75
2022-11-23T13:35:29.211Z,99009.56
2022-11-23T13:38:00.241Z,99013.47
2022-11-23T13:40:32.166Z,99014.47
2022-11-23T13:43:06.557Z,99014.09
2022-11-23T13:45:34.329Z,99014.28
2022-11-23T13:48:03.774Z,99014.25
2022-11-23T13:50:30.626Z,99008.09
2022-11-23T13:52:57.070Z,99009.22
2022-11-23T13:55:43.673Z,99006.59
2022-11-23T13:58:22.739Z,99015.00
2022-11-23T14:00:59.467Z,99001.28
2022-11-23T14:03:50.978Z,99005.78
2022-11-23T14:06:22.518Z,99005.53
2022-11-23T14:09:18.201Z,99002.81
2022-11-23T14:12:03.087Z,98992.66
2022-11-23T14:15:04.966Z,98995.84
2022-11-23T14:18:08.741Z,99012.72
2022-11-23T14:21:03.188Z,99014.06
2022-11-23T14:23:54.350Z,99019.66
2022-11-23T14:26:29.788Z,99030.75
2022-11-23T14:29:52.816Z,99033.06
2022-11-23T14:32:35.835Z,99038.81
2022-11-23T14:35:21.022Z,99046.78
2022-11-23T14:37:58.197Z,99047.28
2022-11-23T14:40:52.939Z,99048.31
2022-11-23T14:43:19.965Z,99048.50
2022-11-23T14:45:47.409Z,99023.28
2022-11-23T14:48:29.233Z,99066.44
2022-11-23T14:51:03.407Z,99067.13
2022-11-23T14:53:34.582Z,99074.88
2022-11-23T14:56:01.462Z,99058.34
2022-11-23T14:58:31.998Z,99050.06
2022-11-23T15:01:01.007Z,99110.00
2022-11-23T15:06:18.453Z,99122.91
2022-11-23T15:09:04.685Z,99096.41
2022-11-23T15:11:33.644Z,99116.84
2022-11-23T15:14:02.838Z,99062.25
2022-11-23T15:16:29.869Z,99120.88
2022-11-23T15:18:57.022Z,99094.03
2022-11-23T15:21:27.873Z,99112.56
2022-11-23T15:23:57.284Z,99109.50
2022-11-23T15:26:46.947Z,99119.69
2022-11-23T15:29:33.476Z,99155.63
2022-11-23T15:32:28.697Z,99134.09
2022-11-23T15:34:48.581Z,99165.66
2022-11-23T15:37:15.327Z,99174.44
2022-11-23T15:39:42.018Z,99062.72
2022-11-23T15:42:15.306Z,99147.41
2022-11-23T15:44:50.599Z,99133.94
2022-11-23T15:47:27.711Z,99188.34
2022-11-23T15:50:02.085Z,99170.00
2022-11-23T15:52:33.504Z,99195.47
2022-11-23T15:57:56.518Z,99219.34
2022-11-23T16:00:25.640Z,99211.31
2022-11-23T16:02:52.853Z,99115.59
2022-11-23T16:04:12.650Z,99200.72
2022-11-23T16:05:24.013Z,99225.56
2022-11-23T16:07:58.004Z,99239.03
2022-11-23T16:13:39.958Z,99247.00
2022-11-23T16:16:14.048Z,99210.31
2022-11-23T16:18:44.794Z,99240.69
2022-11-23T16:21:17.131Z,99247.00
2022-11-23T16:23:56.662Z,99209.66
2022-11-23T16:26:33.903Z,99206.38
2022-11-23T16:29:03.921Z,99220.50
2022-11-23T16:31:38.771Z,99239.56
2022-11-23T16:34:15.357Z,99237.75
2022-11-23T16:36:41.692Z,99213.31
2022-11-23T16:39:08.168Z,99204.63
2022-11-23T16:41:34.693Z,99158.00
2022-11-23T16:44:01.080Z,99218.94
2022-11-23T16:46:27.607Z,99221.16
2022-11-23T16:48:54.316Z,99199.16
2022-11-23T16:51:20.758Z,99241.78
2022-11-23T16:54:12.423Z,99207.38
2022-11-23T16:56:33.988Z,99267.00
2022-11-23T16:59:00.679Z,99257.56
2022-11-23T17:01:29.609Z,99244.00
2022-11-23T17:03:56.129Z,99192.97
2022-11-23T17:06:25.312Z,99257.06
2022-11-23T17:09:00.436Z,99243.47
2022-11-23T17:11:29.798Z,99261.25
2022-11-23T17:13:56.788Z,99265.72
2022-11-23T17:16:25.665Z,99283.75
2022-11-23T17:18:52.345Z,99268.31
2022-11-23T17:21:18.704Z,99239.69
2022-11-23T17:23:45.167Z,99250.22
2022-11-23T17:26:40.518Z,99294.47
2022-11-23T17:29:13.479Z,99295.66
2022-11-23T17:31:43.281Z,99289.38
2022-11-23T17:34:10.005Z,99298.13
2022-11-23T17:36:36.601Z,99301.25
2022-11-23T17:39:03.264Z,99311.06
2022-11-23T17:41:29.616Z,99289.09
2022-11-23T17:43:58.322Z,99265.31
2022-11-23T17:46:24.810Z,99289.75
2022-11-23T17:48:55.885Z,99247.41
2022-11-23T17:51:22.572Z,99303.22
2022-11-23T17:53:48.965Z,99310.44
2022-11-23T17:56:18.720Z,99302.16
2022-11-23T17:58:45.914Z,99265.31
2022-11-23T18:01:14.822Z,99323.63
2022-11-23T18:03:42.567Z,99313.94
2022-11-23T18:06:14.084Z,99340.38
2022-11-23T18:08:41.378Z,99304.28
2022-11-23T18:11:08.296Z,99308.97
2022-11-23T18:13:35.180Z,99322.03
2022-11-23T18:16:01.593Z,99313.69
2022-11-23T18:18:28.051Z,99312.03
2022-11-23T18:20:54.408Z,99324.66
2022-11-23T18:23:20.771Z,99341.50
2022-11-23T18:25:47.440Z,99358.63
2022-11-23T18:28:18.697Z,99335.88
2022-11-23T18:30:51.598Z,99289.31
2022-11-23T18:33:18.115Z,99376.69
2022-11-23T18:35:44.505Z,99359.72
2022-11-23T18:38:10.816Z,99383.59
2022-11-23T18:40:37.134Z,99317.47
2022-11-23T18:43:03.457Z,99344.19
2022-11-23T18:45:29.881Z,99397.94
2022-11-23T18:47:56.240Z,99317.84
2022-11-23T18:50:22.666Z,99282.59
2022-11-23T18:52:48.995Z,99223.44
2022-11-23T18:55:15.418Z,99339.44
2022-11-23T18:57:41.860Z,99382.56
2022-11-23T19:00:10.152Z,99317.78
2022-11-23T19:02:38.133Z,99401.84
2022-11-23T19:05:04.792Z,99351.75
2022-11-23T19:07:31.237Z,99354.84
2022-11-23T19:09:57.639Z,99416.56
2022-11-23T19:12:24.024Z,99275.16
2022-11-23T19:14:52.596Z,99329.59
2022-11-23T19:17:18.959Z,99435.53
2022-11-23T19:19:45.368Z,99318.25
2022-11-23T19:22:11.851Z,99452.50
2022-11-23T19:24:38.240Z,99456.63
2022-11-23T19:27:04.613Z,99410.84
2022-11-23T19:29:31.003Z,99332.22
2022-11-23T19:31:57.382Z,99344.00
2022-11-23T19:34:24.002Z,99345.00
2022-11-23T19:36:50.396Z,99469.53
2022-11-23T19:39:16.807Z,99478.47
2022-11-23T19:41:43.517Z,99492.13
2022-11-23T19:44:10.094Z,99327.16
2022-11-23T19:46:36.577Z,99480.19
2022-11-23T19:49:04.604Z,99495.63
2022-11-23T19:51:30.956Z,99292.78
2022-11-23T19:53:57.574Z,99490.53
2022-11-23T19:56:25.929Z,99506.72
2022-11-23T19:59:01.654Z,99492.78
2022-11-23T20:01:31.970Z,99355.13
2022-11-23T20:04:07.912Z,99429.69
2022-11-23T20:06:37.094Z,99378.78
2022-11-23T20:09:05.860Z,99467.69
2022-11-23T20:11:33.530Z,99522.72
2022-11-23T20:14:03.343Z,99429.06
2022-11-23T20:16:31.691Z,99513.03
2022-11-23T20:19:00.135Z,99532.31
2022-11-23T20:21:27.886Z,99499.97
2022-11-23T20:24:01.448Z,99472.34
2022-11-23T20:26:30.958Z,99518.34
2022-11-23T20:28:58.596Z,99327.56
2022-11-23T20:31:27.053Z,99530.28
2022-11-23T20:33:54.039Z,99412.63
2022-11-23T20:36:20.399Z,99538.50
2022-11-23T20:38:47.482Z,99525.66
2022-11-23T20:41:18.818Z,99534.38
2022-11-23T20:43:46.946Z,99534.75
2022-11-23T20:46:19.244Z,99454.78
2022-11-23T20:48:58.794Z,99527.06
2022-11-23T20:51:27.245Z,99531.25
2022-11-23T20:53:54.533Z,99558.50
2022-11-23T20:56:26.892Z,99540.81
2022-11-23T20:58:55.976Z,99476.81
2022-11-23T21:01:23.113Z,99575.38
2022-11-23T21:03:52.015Z,99564.00
2022-11-23T21:06:19.749Z,99354.53
2022-11-23T21:08:47.411Z,99531.88
2022-11-23T21:11:44.286Z,99563.59
2022-11-23T21:14:18.359Z,99438.88
2022-11-23T21:16:55.749Z,99583.81
2022-11-23T21:19:29.576Z,99407.59
2022-11-23T21:21:57.254Z,99581.59
2022-11-23T21:24:23.938Z,99459.38
2022-11-23T21:26:50.387Z,99564.13
2022-11-23T21:29:17.576Z,99484.59
2022-11-23T21:31:45.345Z,99589.97
2022-11-23T21:34:27.517Z,99590.56
2022-11-23T21:36:55.429Z,99576.84
2022-11-23T21:39:22.518Z,99611.63
2022-11-23T21:41:50.938Z,99550.94
2022-11-23T21:44:18.188Z,99605.97
2022-11-23T21:46:45.199Z,99515.38
2022-11-23T21:49:12.837Z,99587.22
2022-11-23T21:51:39.712Z,99577.91
2022-11-23T21:54:07.952Z,99629.19
2022-11-23T21:56:34.408Z,99619.91
2022-11-23T21:59:00.915Z,99630.19
2022-11-23T22:01:29.901Z,99614.50
2022-11-23T22:04:15.088Z,99622.53
2022-11-23T22:06:44.236Z,99626.22
2022-11-23T22:09:11.871Z,99643.63
2022-11-23T22:11:41.076Z,99538.31
2022-11-23T22:14:11.743Z,99598.72
2022-11-23T22:16:54.248Z,99647.03
2022-11-23T22:19:20.589Z,99649.97
2022-11-23T22:21:47.338Z,99638.81
2022-11-23T22:24:16.338Z,99648.13
2022-11-23T22:26:43.591Z,99621.72
2022-11-23T22:29:10.590Z,99516.72
2022-11-23T22:31:37.415Z,99541.41
2022-11-23T22:34:06.235Z,99565.69
2022-11-23T22:36:33.020Z,99667.13
2022-11-23T22:39:02.584Z,99653.25
2022-11-23T22:41:30.250Z,99658.66
2022-11-23T22:43:57.003Z,99662.09
2022-11-23T22:46:25.040Z,99645.94
2022-11-23T22:48:52.488Z,99623.56
2022-11-23T22:51:23.130Z,99661.63
2022-11-23T22:53:57.938Z,99666.97
2022-11-23T22:56:25.556Z,99590.69
2022-11-23T22:58:52.285Z,99663.78
2022-11-23T23:01:21.651Z,99683.16
2022-11-23T23:03:48.899Z,99687.25
2022-11-23T23:06:18.043Z,99704.41
2022-11-23T23:08:45.911Z,99711.25
2022-11-23T23:11:14.008Z,99603.06
2022-11-23T23:13:41.293Z,99631.53
2022-11-23T23:16:11.625Z,99707.19
2022-11-23T23:18:38.479Z,99616.59
2022-11-23T23:21:14.373Z,99636.75
2022-11-23T23:23:44.056Z,99721.91
2022-11-23T23:26:12.529Z,99681.97
2022-11-23T23:28:39.165Z,99690.88
2022-11-23T23:31:14.111Z,99699.63
2022-11-23T23:33:40.846Z,99714.19
2022-11-23T23:36:15.876Z,99683.25
2022-11-23T23:38:43.240Z,99700.63
2022-11-23T23:41:11.160Z,99737.03
2022-11-23T23:43:37.665Z,99658.06
2022-11-23T23:46:06.529Z,99741.00
2022-11-23T23:48:35.876Z,99670.91
2022-11-23T23:51:19.181Z,99765.13
2022-11-23T23:53:46.946Z,99673.47
2022-11-23T23:56:24.995Z,99753.97
2022-11-23T23:58:52.223Z,99738.31
